createdAt,value
2019-03-06T00:01:10.748Z,97959.47
2019-03-06T00:03:42.685Z,97961.34
2019-03-06T00:06:16.707Z,97962.56
2019-03-06T00:08:43.384Z,97961.33
2019-03-06T00:11:12.986Z,97960.74
2019-03-06T00:13:42.256Z,97963.92
2019-03-06T00:16:11.508Z,97961.05
2019-03-06T00:18:41.980Z,97963.97
2019-03-06T00:21:11.226Z,97958.81
2019-03-06T00:23:41.091Z,97967.81
2019-03-06T00:26:10.345Z,97964.05
2019-03-06T00:28:39.586Z,97964.66
2019-03-06T00:31:08.826Z,97968.67
2019-03-06T00:33:38.073Z,97967.72
2019-03-06T00:36:11.910Z,97967.45
2019-03-06T00:38:41.138Z,97963.97
2019-03-06T00:41:35.253Z,97967.13
2019-03-06T00:44:05.043Z,97963.91
2019-03-06T00:46:34.287Z,97968.94
2019-03-06T00:49:04.602Z,97978.06
2019-03-06T00:51:33.914Z,97968.04
2019-03-06T00:54:04.290Z,97965.67
2019-03-06T00:56:33.907Z,97974.39
2019-03-06T00:59:03.465Z,97976.79
2019-03-06T01:01:32.758Z,97970.58
2019-03-06T01:04:02.862Z,97971.78
2019-03-06T01:06:32.383Z,97963.47
2019-03-06T01:09:01.596Z,97969.91
2019-03-06T01:11:30.839Z,97970.07
2019-03-06T01:14:00.077Z,97964.52
2019-03-06T01:16:30.153Z,97961.20
2019-03-06T01:18:59.678Z,97965.45
2019-03-06T01:21:32.534Z,97955.52
2019-03-06T01:24:02.002Z,97952.75
2019-03-06T01:26:32.395Z,97952.53
2019-03-06T01:29:02.515Z,97946.66
2019-03-06T01:31:31.763Z,97943.02
2019-03-06T01:34:38.259Z,97947.91
2019-03-06T01:37:29.364Z,97947.41
2019-03-06T01:40:09.434Z,97938.27
2019-03-06T01:42:45.377Z,97937.27
2019-03-06T01:45:14.782Z,97937.17
2019-03-06T01:47:44.038Z,97933.34
2019-03-06T01:50:15.835Z,97929.80
2019-03-06T01:52:45.634Z,97927.77
2019-03-06T01:55:16.024Z,97923.45
2019-03-06T01:57:45.275Z,97918.36
2019-03-06T02:00:17.601Z,97921.15
2019-03-06T02:02:47.041Z,97928.41
2019-03-06T02:05:17.515Z,97930.66
2019-03-06T02:07:48.485Z,97931.02
2019-03-06T02:10:18.876Z,97924.09
2019-03-06T02:12:51.170Z,97928.34
2019-03-06T02:15:20.555Z,97920.68
2019-03-06T02:17:49.840Z,97915.02
2019-03-06T02:20:21.010Z,97916.35
2019-03-06T02:22:50.289Z,97908.45
2019-03-06T02:25:19.596Z,97913.62
2019-03-06T02:27:48.887Z,97913.42
2019-03-06T02:30:20.252Z,97915.37
2019-03-06T02:32:51.119Z,97923.72
2019-03-06T02:35:20.646Z,97924.90
2019-03-06T02:37:50.937Z,97931.64
2019-03-06T02:40:20.223Z,97930.32
2019-03-06T02:42:49.764Z,97936.53
2019-03-06T02:45:19.032Z,97935.52
2019-03-06T02:47:48.347Z,97934.78
2019-03-06T02:50:17.591Z,97934.78
2019-03-06T02:52:48.255Z,97930.58
2019-03-06T02:55:17.752Z,97923.73
2019-03-06T02:58:10.349Z,97925.55
2019-03-06T03:00:59.512Z,97924.28
2019-03-06T03:03:51.608Z,97929.36
2019-03-06T03:06:26.444Z,97929.31
2019-03-06T03:08:58.739Z,97930.38
2019-03-06T03:11:27.972Z,97928.23
2019-03-06T03:13:57.304Z,97934.78
2019-03-06T03:16:29.121Z,97928.48
2019-03-06T03:18:58.400Z,97917.77
2019-03-06T03:21:28.021Z,97920.52
2019-03-06T03:23:59.018Z,97929.56
2019-03-06T03:26:29.709Z,97920.07
2019-03-06T03:28:58.954Z,97915.86
2019-03-06T03:31:29.113Z,97917.47
2019-03-06T03:33:58.352Z,97912.13
2019-03-06T03:36:29.359Z,97914.42
2019-03-06T03:38:59.643Z,97913.00
2019-03-06T03:41:29.335Z,97915.74
2019-03-06T03:43:58.758Z,97912.61
2019-03-06T03:46:28.011Z,97905.63
2019-03-06T03:48:59.462Z,97901.05
2019-03-06T03:51:30.722Z,97898.02
2019-03-06T03:53:59.971Z,97899.73
2019-03-06T03:56:29.244Z,97908.78
2019-03-06T03:58:59.246Z,97911.34
2019-03-06T04:01:28.502Z,97908.42
2019-03-06T04:03:57.745Z,97910.96
2019-03-06T04:06:28.053Z,97909.56
2019-03-06T04:08:58.977Z,97919.77
2019-03-06T04:11:28.231Z,97914.79
2019-03-06T04:13:57.808Z,97911.66
2019-03-06T04:16:27.434Z,97907.45
2019-03-06T04:18:56.673Z,97908.34
2019-03-06T04:21:26.214Z,97896.08
2019-03-06T04:24:00.173Z,97896.33
2019-03-06T04:26:29.756Z,97899.84
2019-03-06T04:29:01.470Z,97895.64
2019-03-06T04:31:33.014Z,97902.62
2019-03-06T04:34:02.246Z,97914.29
2019-03-06T04:36:31.502Z,97918.88
2019-03-06T04:39:03.907Z,97916.88
2019-03-06T04:41:34.047Z,97915.67
2019-03-06T04:44:03.278Z,97903.73
2019-03-06T04:46:33.398Z,97909.16
2019-03-06T04:49:02.692Z,97898.41
2019-03-06T04:51:31.976Z,97896.69
2019-03-06T04:54:01.266Z,97896.86
2019-03-06T04:56:30.875Z,97897.36
2019-03-06T04:59:00.121Z,97895.55
2019-03-06T05:01:30.574Z,97888.27
2019-03-06T05:04:00.214Z,97887.75
2019-03-06T05:06:29.835Z,97893.98
2019-03-06T05:09:03.566Z,97895.23
2019-03-06T05:11:33.338Z,97893.86
2019-03-06T05:14:02.982Z,97888.59
2019-03-06T05:17:09.415Z,97881.55
2019-03-06T05:19:38.924Z,97881.98
2019-03-06T05:22:08.834Z,97872.99
2019-03-06T05:24:38.065Z,97869.23
2019-03-06T05:27:07.348Z,97863.51
2019-03-06T05:29:36.817Z,97859.80
2019-03-06T05:32:44.846Z,97860.86
2019-03-06T05:35:54.705Z,97856.55
2019-03-06T05:38:35.035Z,97869.40
2019-03-06T05:41:04.302Z,97866.13
2019-03-06T05:43:34.844Z,97866.30
2019-03-06T05:46:07.672Z,97867.30
2019-03-06T05:48:36.941Z,97867.69
2019-03-06T05:51:06.194Z,97869.61
2019-03-06T05:53:36.642Z,97866.11
2019-03-06T05:56:06.776Z,97857.52
2019-03-06T05:58:36.112Z,97860.98
2019-03-06T06:01:05.607Z,97858.74
2019-03-06T06:03:34.869Z,97859.05
2019-03-06T06:06:04.513Z,97861.94
2019-03-06T06:08:34.424Z,97865.63
2019-03-06T06:11:03.896Z,97863.25
2019-03-06T06:13:33.215Z,97861.31
2019-03-06T06:16:02.440Z,97858.25
2019-03-06T06:18:31.972Z,97855.12
2019-03-06T06:21:29.357Z,97860.70
2019-03-06T06:24:02.261Z,97850.59
2019-03-06T06:26:31.484Z,97845.31
2019-03-06T06:29:00.737Z,97843.75
2019-03-06T06:31:30.638Z,97846.39
2019-03-06T06:34:01.032Z,97840.80
2019-03-06T06:36:30.446Z,97842.03
2019-03-06T06:38:59.711Z,97846.23
2019-03-06T06:41:31.506Z,97840.80
2019-03-06T06:44:05.797Z,97840.39
2019-03-06T06:46:35.136Z,97841.00
2019-03-06T06:49:04.385Z,97843.41
2019-03-06T06:52:09.422Z,97845.86
2019-03-06T06:55:25.710Z,97852.48
2019-03-06T06:58:38.461Z,97840.88
2019-03-06T07:01:46.371Z,97849.94
2019-03-06T07:04:57.435Z,97841.78
2019-03-06T07:07:51.571Z,97834.56
2019-03-06T07:10:37.474Z,97831.69
2019-03-06T07:13:15.869Z,97831.14
2019-03-06T07:16:04.327Z,97833.34
2019-03-06T07:18:55.300Z,97829.31
2019-03-06T07:21:39.719Z,97831.55
2019-03-06T07:24:43.031Z,97831.81
2019-03-06T07:27:40.940Z,97838.33
2019-03-06T07:30:28.529Z,97833.58
2019-03-06T07:33:19.584Z,97837.11
2019-03-06T07:36:21.212Z,97828.09
2019-03-06T07:38:55.461Z,97820.49
2019-03-06T07:41:46.817Z,97837.78
2019-03-06T07:44:37.967Z,97842.52
2019-03-06T07:50:29.165Z,97836.94
2019-03-06T07:53:53.519Z,97816.12
2019-03-06T07:56:31.722Z,97802.31
2019-03-06T07:59:01.325Z,97795.31
2019-03-06T08:01:33.459Z,97808.72
2019-03-06T08:04:17.705Z,97804.30
2019-03-06T08:06:51.448Z,97798.93
2019-03-06T08:09:23.209Z,97803.23
2019-03-06T08:12:05.267Z,97802.92
2019-03-06T08:14:55.557Z,97792.75
2019-03-06T08:17:36.510Z,97775.44
2019-03-06T08:20:37.694Z,97767.37
2019-03-06T08:23:27.876Z,97750.73
2019-03-06T08:25:59.164Z,97753.80
2019-03-06T08:28:28.383Z,97748.06
2019-03-06T08:31:23.216Z,97746.63
2019-03-06T08:33:55.146Z,97746.19
2019-03-06T08:36:25.617Z,97756.03
2019-03-06T08:38:54.834Z,97735.14
2019-03-06T08:41:25.587Z,97738.16
2019-03-06T08:43:55.999Z,97735.05
2019-03-06T08:46:53.291Z,97730.84
2019-03-06T08:49:41.817Z,97725.18
2019-03-06T08:52:48.465Z,97725.31
2019-03-06T08:55:48.662Z,97738.27
2019-03-06T08:58:35.509Z,97732.41
2019-03-06T09:02:01.232Z,97737.87
2019-03-06T09:05:02.450Z,97715.06
2019-03-06T09:08:01.108Z,97717.19
2019-03-06T09:10:49.596Z,97706.84
2019-03-06T09:13:43.645Z,97703.74
2019-03-06T09:16:30.936Z,97708.52
2019-03-06T09:19:17.824Z,97693.17
2019-03-06T09:22:03.259Z,97688.16
2019-03-06T09:25:09.856Z,97709.53
2019-03-06T09:27:44.859Z,97696.22
2019-03-06T09:30:44.590Z,97674.38
2019-03-06T09:33:28.726Z,97683.57
2019-03-06T09:36:15.429Z,97681.45
2019-03-06T09:39:00.876Z,97693.57
2019-03-06T09:41:55.307Z,97671.86
2019-03-06T09:44:43.985Z,97670.25
2019-03-06T09:47:22.541Z,97659.39
2019-03-06T09:50:29.114Z,97659.14
2019-03-06T09:53:20.096Z,97650.45
2019-03-06T09:55:56.357Z,97652.35
2019-03-06T09:58:36.573Z,97652.25
2019-03-06T10:01:36.832Z,97636.76
2019-03-06T10:04:14.965Z,97640.50
2019-03-06T10:07:04.036Z,97624.81
2019-03-06T10:09:58.828Z,97622.89
2019-03-06T10:12:48.101Z,97615.30
2019-03-06T10:15:51.499Z,97632.11
2019-03-06T10:18:43.594Z,97639.80
2019-03-06T10:21:12.823Z,97614.44
2019-03-06T10:23:42.070Z,97617.20
2019-03-06T10:26:11.307Z,97620.16
2019-03-06T10:28:41.935Z,97606.97
2019-03-06T10:31:13.954Z,97604.21
2019-03-06T10:33:43.221Z,97608.59
2019-03-06T10:36:15.340Z,97606.09
2019-03-06T10:38:45.033Z,97600.43
2019-03-06T10:41:14.635Z,97594.63
2019-03-06T10:43:49.629Z,97585.52
2019-03-06T10:46:18.475Z,97583.84
2019-03-06T10:48:49.611Z,97577.99
2019-03-06T10:51:19.218Z,97592.16
2019-03-06T10:53:49.152Z,97581.58
2019-03-06T10:56:18.563Z,97588.73
2019-03-06T10:58:47.916Z,97577.19
2019-03-06T11:01:17.362Z,97580.95
2019-03-06T11:03:56.352Z,97569.41
2019-03-06T11:06:25.771Z,97569.41
2019-03-06T11:08:56.742Z,97561.44
2019-03-06T11:11:29.052Z,97563.46
2019-03-06T11:14:05.906Z,97555.67
2019-03-06T11:16:29.784Z,97555.14
2019-03-06T11:19:00.821Z,97549.23
2019-03-06T11:21:30.422Z,97564.28
2019-03-06T11:23:59.676Z,97554.37
2019-03-06T11:26:29.208Z,97536.26
2019-03-06T11:29:03.010Z,97530.85
2019-03-06T11:31:33.149Z,97523.59
2019-03-06T11:34:02.391Z,97526.14
2019-03-06T11:36:31.792Z,97514.58
2019-03-06T11:39:01.100Z,97525.86
2019-03-06T11:41:32.010Z,97520.40
2019-03-06T11:44:01.289Z,97510.36
2019-03-06T11:46:30.625Z,97516.95
2019-03-06T11:49:01.051Z,97498.41
2019-03-06T11:51:32.046Z,97501.96
2019-03-06T11:54:01.314Z,97489.05
2019-03-06T11:56:32.879Z,97482.58
2019-03-06T11:59:02.104Z,97481.06
2019-03-06T12:01:32.753Z,97473.89
2019-03-06T12:04:01.972Z,97463.69
2019-03-06T12:06:31.236Z,97452.70
2019-03-06T12:09:02.091Z,97439.33
2019-03-06T12:11:33.988Z,97442.03
2019-03-06T12:14:03.295Z,97425.91
2019-03-06T12:16:41.588Z,97417.58
2019-03-06T12:19:04.660Z,97424.55
2019-03-06T12:21:33.961Z,97417.78
2019-03-06T12:24:03.498Z,97393.87
2019-03-06T12:26:34.334Z,97406.20
2019-03-06T12:29:06.124Z,97396.88
2019-03-06T12:31:35.422Z,97401.98
2019-03-06T12:34:04.808Z,97382.14
2019-03-06T12:36:36.094Z,97381.06
2019-03-06T12:39:05.864Z,97368.45
2019-03-06T12:41:35.143Z,97368.39
2019-03-06T12:44:10.316Z,97359.79
2019-03-06T12:46:37.004Z,97346.44
2019-03-06T12:49:10.521Z,97346.70
2019-03-06T12:51:39.792Z,97338.66
2019-03-06T12:54:09.819Z,97327.38
2019-03-06T12:56:39.085Z,97328.70
2019-03-06T12:59:08.740Z,97329.97
2019-03-06T13:01:39.827Z,97319.51
2019-03-06T13:04:10.787Z,97321.97
2019-03-06T13:06:45.799Z,97314.68
2019-03-06T13:09:20.802Z,97311.94
2019-03-06T13:11:55.439Z,97310.33
2019-03-06T13:14:25.063Z,97302.87
2019-03-06T13:17:05.387Z,97305.28
2019-03-06T13:19:34.653Z,97299.83
2019-03-06T13:22:11.160Z,97294.20
2019-03-06T13:24:35.699Z,97298.75
2019-03-06T13:27:04.978Z,97292.86
2019-03-06T13:29:37.698Z,97295.98
2019-03-06T13:32:11.950Z,97283.16
2019-03-06T13:34:53.908Z,97298.20
2019-03-06T13:37:26.955Z,97277.03
2019-03-06T13:39:56.223Z,97278.45
2019-03-06T13:42:27.440Z,97263.20
2019-03-06T13:44:56.680Z,97273.64
2019-03-06T13:47:26.565Z,97249.00
2019-03-06T13:49:58.419Z,97246.02
2019-03-06T13:52:37.725Z,97239.09
2019-03-06T13:55:09.404Z,97239.32
2019-03-06T13:57:38.668Z,97230.49
2019-03-06T14:00:12.824Z,97223.25
2019-03-06T14:02:42.113Z,97214.70
2019-03-06T14:05:11.877Z,97212.82
2019-03-06T14:07:43.456Z,97202.13
2019-03-06T14:10:14.537Z,97208.30
2019-03-06T14:12:46.904Z,97192.98
2019-03-06T14:15:18.068Z,97192.68
2019-03-06T14:17:47.621Z,97188.17
2019-03-06T14:20:18.835Z,97173.69
2019-03-06T14:22:48.118Z,97177.99
2019-03-06T14:25:22.211Z,97162.88
2019-03-06T14:27:51.948Z,97161.28
2019-03-06T14:30:21.834Z,97142.77
2019-03-06T14:32:51.997Z,97156.75
2019-03-06T14:35:21.675Z,97145.20
2019-03-06T14:37:51.438Z,97146.06
2019-03-06T14:40:26.651Z,97135.66
2019-03-06T14:42:56.770Z,97123.84
2019-03-06T14:45:26.377Z,97124.37
2019-03-06T14:47:58.669Z,97120.36
2019-03-06T14:50:30.309Z,97113.40
2019-03-06T14:53:00.106Z,97116.61
2019-03-06T14:55:29.669Z,97113.40
2019-03-06T14:57:58.943Z,97104.54
2019-03-06T15:00:28.345Z,97104.02
2019-03-06T15:02:57.736Z,97097.33
2019-03-06T15:05:29.121Z,97094.64
2019-03-06T15:07:58.408Z,97100.00
2019-03-06T15:10:27.691Z,97101.34
2019-03-06T15:12:57.773Z,97094.36
2019-03-06T15:15:27.332Z,97098.36
2019-03-06T15:17:56.380Z,97100.80
2019-03-06T15:20:26.547Z,97097.31
2019-03-06T15:22:58.819Z,97104.53
2019-03-06T15:25:31.732Z,97092.23
2019-03-06T15:28:03.449Z,97090.61
2019-03-06T15:30:32.735Z,97082.86
2019-03-06T15:33:02.643Z,97077.20
2019-03-06T15:35:33.148Z,97080.95
2019-03-06T15:38:11.516Z,97077.74
2019-03-06T15:40:43.098Z,97077.48
2019-03-06T15:43:15.382Z,97060.34
2019-03-06T15:45:44.658Z,97055.23
2019-03-06T15:48:18.119Z,97062.48
2019-03-06T15:50:47.789Z,97059.55
2019-03-06T15:53:24.489Z,97053.38
2019-03-06T15:55:51.663Z,97050.70
2019-03-06T15:58:23.209Z,97055.50
2019-03-06T16:00:57.731Z,97048.80
2019-03-06T16:03:26.952Z,97047.98
2019-03-06T16:05:56.320Z,97052.17
2019-03-06T16:08:27.543Z,97044.39
2019-03-06T16:10:57.168Z,97045.44
2019-03-06T16:13:26.963Z,97047.28
2019-03-06T16:15:57.461Z,97044.58
2019-03-06T16:18:27.817Z,97046.67
2019-03-06T16:20:57.082Z,97042.67
2019-03-06T16:23:26.302Z,97038.88
2019-03-06T16:25:57.410Z,97035.61
2019-03-06T16:28:26.676Z,97040.94
2019-03-06T16:30:56.003Z,97039.58
2019-03-06T16:33:31.596Z,97030.47
2019-03-06T16:36:00.895Z,97020.52
2019-03-06T16:38:30.147Z,97024.00
2019-03-06T16:41:00.103Z,97026.84
2019-03-06T16:43:29.375Z,97026.03
2019-03-06T16:45:58.627Z,97012.63
2019-03-06T16:48:27.832Z,97012.33
2019-03-06T16:50:57.125Z,97012.27
2019-03-06T16:53:26.343Z,97015.91
2019-03-06T16:55:55.593Z,97004.91
2019-03-06T16:58:27.883Z,97002.17
2019-03-06T17:00:58.461Z,97007.73
2019-03-06T17:03:29.433Z,97004.43
2019-03-06T17:06:01.153Z,96995.31
2019-03-06T17:08:32.065Z,96994.76
2019-03-06T17:11:01.331Z,97002.45
2019-03-06T17:13:31.099Z,96992.52
2019-03-06T17:16:00.871Z,96995.97
2019-03-06T17:18:31.973Z,97001.82
2019-03-06T17:21:01.224Z,96987.58
2019-03-06T17:23:30.793Z,96984.73
2019-03-06T17:26:00.069Z,96975.56
2019-03-06T17:28:29.284Z,96977.89
2019-03-06T17:30:59.422Z,96981.82
2019-03-06T17:33:28.818Z,96976.20
2019-03-06T17:35:58.119Z,96978.84
2019-03-06T17:38:30.608Z,96977.22
2019-03-06T17:40:59.902Z,96979.72
2019-03-06T17:43:29.527Z,96977.28
2019-03-06T17:45:59.640Z,96979.72
2019-03-06T17:48:30.953Z,96976.45
2019-03-06T17:51:00.899Z,96971.58
2019-03-06T17:53:30.810Z,96972.36
2019-03-06T17:56:00.547Z,96973.94
2019-03-06T17:58:30.432Z,96977.67
2019-03-06T18:01:15.006Z,96978.71
2019-03-06T18:04:03.667Z,96971.74
2019-03-06T18:06:32.936Z,96978.09
2019-03-06T18:09:02.765Z,96972.97
2019-03-06T18:11:35.919Z,96964.35
2019-03-06T18:14:05.158Z,96968.34
2019-03-06T18:16:34.749Z,96961.88
2019-03-06T18:19:03.973Z,96964.45
2019-03-06T18:21:37.445Z,96963.39
2019-03-06T18:24:08.084Z,96963.08
2019-03-06T18:26:39.374Z,96957.19
2019-03-06T18:29:08.686Z,96954.77
2019-03-06T18:31:37.916Z,96946.17
2019-03-06T18:34:08.530Z,96941.33
2019-03-06T18:36:37.768Z,96945.08
2019-03-06T18:39:18.005Z,96942.62
2019-03-06T18:41:47.691Z,96936.16
2019-03-06T18:44:16.941Z,96929.77
2019-03-06T18:46:47.237Z,96932.09
2019-03-06T18:49:16.530Z,96930.97
2019-03-06T18:51:45.797Z,96937.80
2019-03-06T18:54:15.014Z,96936.22
2019-03-06T18:56:44.627Z,96935.45
2019-03-06T18:59:15.391Z,96936.73
2019-03-06T19:01:44.644Z,96930.86
2019-03-06T19:04:14.258Z,96929.77
2019-03-06T19:06:44.135Z,96921.20
2019-03-06T19:09:13.394Z,96915.50
2019-03-06T19:11:43.035Z,96907.79
2019-03-06T19:14:12.290Z,96907.74
2019-03-06T19:16:41.697Z,96904.00
2019-03-06T19:19:13.674Z,96904.00
2019-03-06T19:21:45.358Z,96908.24
2019-03-06T19:24:14.570Z,96893.27
2019-03-06T19:26:44.142Z,96900.63
2019-03-06T19:29:14.365Z,96888.58
2019-03-06T19:31:43.598Z,96876.08
2019-03-06T19:34:13.173Z,96876.50
2019-03-06T19:36:42.402Z,96875.05
2019-03-06T19:39:11.623Z,96865.74
2019-03-06T19:41:40.830Z,96868.06
2019-03-06T19:44:10.094Z,96871.48
2019-03-06T19:46:39.311Z,96871.68
2019-03-06T19:49:08.982Z,96866.86
2019-03-06T19:51:38.195Z,96867.13
2019-03-06T19:54:07.445Z,96869.06
2019-03-06T19:56:36.649Z,96866.08
2019-03-06T19:59:05.905Z,96859.93
2019-03-06T20:01:35.112Z,96855.63
2019-03-06T20:04:04.724Z,96845.73
2019-03-06T20:06:35.150Z,96838.72
2019-03-06T20:09:09.882Z,96827.20
2019-03-06T20:11:42.503Z,96825.22
2019-03-06T20:14:13.665Z,96822.87
2019-03-06T20:16:42.887Z,96821.67
2019-03-06T20:19:12.600Z,96811.60
2019-03-06T20:21:49.586Z,96805.15
2019-03-06T20:24:18.897Z,96816.50
2019-03-06T20:26:48.129Z,96815.36
2019-03-06T20:29:17.671Z,96808.54
2019-03-06T20:31:49.156Z,96808.31
2019-03-06T20:34:18.819Z,96816.53
2019-03-06T20:36:48.896Z,96816.18
2019-03-06T20:39:19.093Z,96818.05
2019-03-06T20:41:48.338Z,96819.67
2019-03-06T20:44:17.949Z,96815.63
2019-03-06T20:46:49.719Z,96816.39
2019-03-06T20:49:19.839Z,96809.10
2019-03-06T20:51:49.369Z,96804.98
2019-03-06T20:54:18.631Z,96807.77
2019-03-06T20:56:47.896Z,96797.34
2019-03-06T20:59:20.149Z,96799.35
2019-03-06T21:01:49.376Z,96797.09
2019-03-06T21:04:20.212Z,96794.29
2019-03-06T21:06:49.710Z,96793.74
2019-03-06T21:09:19.209Z,96787.43
2019-03-06T21:11:48.707Z,96791.33
2019-03-06T21:14:17.981Z,96795.94
2019-03-06T21:16:47.186Z,96799.35
2019-03-06T21:19:16.425Z,96796.70
2019-03-06T21:21:45.888Z,96791.79
2019-03-06T21:24:17.459Z,96794.72
2019-03-06T21:26:46.693Z,96790.89
2019-03-06T21:29:15.940Z,96788.67
2019-03-06T21:31:45.159Z,96783.12
2019-03-06T21:34:16.148Z,96787.89
2019-03-06T21:36:45.370Z,96779.14
2019-03-06T21:39:36.777Z,96785.44
2019-03-06T21:42:07.080Z,96782.79
2019-03-06T21:44:37.511Z,96774.89
2019-03-06T21:47:06.866Z,96781.47
2019-03-06T21:49:36.352Z,96779.59
2019-03-06T21:52:05.943Z,96781.11
2019-03-06T21:54:37.881Z,96781.48
2019-03-06T21:57:08.323Z,96783.02
2019-03-06T21:59:37.564Z,96775.75
2019-03-06T22:02:06.788Z,96778.65
2019-03-06T22:04:36.340Z,96778.16
2019-03-06T22:07:05.875Z,96764.36
2019-03-06T22:09:42.181Z,96769.00
2019-03-06T22:12:11.998Z,96758.39
2019-03-06T22:14:41.226Z,96760.71
2019-03-06T22:17:10.446Z,96777.33
2019-03-06T22:19:39.695Z,96763.88
2019-03-06T22:22:08.907Z,96763.46
2019-03-06T22:24:38.168Z,96767.47
2019-03-06T22:27:07.660Z,96760.91
2019-03-06T22:29:36.911Z,96757.08
2019-03-06T22:32:06.202Z,96751.28
2019-03-06T22:34:35.464Z,96744.66
2019-03-06T22:37:05.006Z,96748.69
2019-03-06T22:39:34.265Z,96749.14
2019-03-06T22:42:03.482Z,96747.24
2019-03-06T22:44:33.645Z,96750.89
2019-03-06T22:47:06.139Z,96742.84
2019-03-06T22:49:35.383Z,96728.56
2019-03-06T22:52:04.651Z,96730.64
2019-03-06T22:54:33.911Z,96729.26
2019-03-06T22:57:03.194Z,96722.69
2019-03-06T22:59:32.414Z,96722.39
2019-03-06T23:02:02.243Z,96729.16
2019-03-06T23:04:32.536Z,96729.02
2019-03-06T23:07:02.435Z,96726.67
2019-03-06T23:09:31.670Z,96727.75
2019-03-06T23:12:00.914Z,96734.47
2019-03-06T23:14:31.348Z,96736.88
2019-03-06T23:17:01.078Z,96738.53
2019-03-06T23:19:31.778Z,96737.96
2019-03-06T23:22:01.055Z,96738.92
2019-03-06T23:24:30.657Z,96732.28
2019-03-06T23:26:59.895Z,96722.61
2019-03-06T23:29:31.949Z,96719.39
2019-03-06T23:32:01.190Z,96718.94
2019-03-06T23:34:30.482Z,96714.25
2019-03-06T23:36:59.714Z,96712.59
2019-03-06T23:39:28.931Z,96709.27
2019-03-06T23:41:58.365Z,96714.09
2019-03-06T23:44:27.881Z,96709.75
2019-03-06T23:46:57.309Z,96716.57
2019-03-06T23:49:26.524Z,96713.49
2019-03-06T23:52:10.258Z,96706.86
2019-03-06T23:54:39.645Z,96705.77
2019-03-06T23:57:08.937Z,96696.31
2019-03-06T23:59:38.978Z,96690.77
